Molokai Information

FAA: MKK - ICAO: PHMK

Molokai (Airport) Location

State Hawaii
County Maui
City Kaunakakai
Molokai (Airport) is 6 miles northwest of Kaunakakai, HI.
Latitude 21-09-10.3890N
Longitude 157-05-46.5220W
Elevation 453ft

Molokai METARs

METAR PHMK 200254Z 01015G20KT 10SM FEW030 26/17 A3003 RMK AO2 SLP170 T02560172 55002
Altimeter 30.03"
Temperature 25.6°C (78.1°F)
Wind 10° at 15KT with gusts to 20KT
Clouds few at 3,000ft
Visibility 10.0mi
Time observed: 2021-10-20T02:54:00Z

Molokai (Airport) Details

Status Operational
Activation July 1946
Ownership Public
Usage Public
Chart HAWAIIAN ISLANDS
ATC on-site Yes
Beacon schedule sunset-sunrise
Beacon color clear green

Molokai (Airport) Contacts

Owner HAWAII STATE AIRPORTS DIV
Owner address HONOLULU INTL ARPT, HONOLULU, HI 96819
Owner phone 808-836-6432
Manager RUFUS CROWE
Manager address P.O. BOX 7688 SVRB, SAIPAN, MP 96950
Manager phone 670-234-1304

Molokai Radio Frequencies

Molokai (Airport) Radio Frequencies

UNICOM N/A
Common traffic advisory frequency (CTAF) 125.7